Bloomsbury, NJ (08804)

10:15 PM EST on December 08, 2016 (GMT -0500)
| | Change Station

Elev -9999 ft 0.00 °N, 0.00 °E | Updated 8 minutes ago

Partly Cloudy
Partly Cloudy
77 °F
Feels Like 77 °F
N
4
Wind Variable Wind from South
Gusts mph

Today
High -- | Low -- °F
--% Chance of Precip.
Yesterday
High -- | Low -- °F
Precip. -- in
Pressure 30.05 in
Visibility 10.0 miles
Clouds Overcast 6000 ft
Dew Point 58 °F
Humidity 53%
Rainfall --
Snow Depth Not available.
7:11 AM 4:33 PM
Waxing Gibbous, 69% visible
METAR KABE 090251Z 28015G23KT 10SM OVC060 01/M10 A3004 RMK AO2 SLP176 T00061100 53008
Pressure 30.05 in
Visibility 10.0 miles
Clouds Overcast 6000 ft
Dew Point 58 °F
Humidity 53%
Rainfall --
Snow Depth Not available.
7:11 AM 4:33 PM
Waxing Gibbous, 69% visible
METAR KABE 090251Z 28015G23KT 10SM OVC060 01/M10 A3004 RMK AO2 SLP176 T00061100 53008

10-Day Weather Forecast

Almanac

Astronomy

Dec. 08, 2016 Rise Set
Actual Time
Civil Twilight
Nautical Twilight
Astronomical Twilight
Moon
Length of Visible Light
Length of Day
Tomorrow will be .
, % of the Moon is Illuminated

Today's Extremes

State Highs State Lows

Community

WunderPhotos

Upload Photos

1,956,351 photos uploaded!

WunderBlog® & News

Nearby

Air Quality

  Air Quality AQ Index Pollutant
Not available.

Snow Depth

Station Depth Elevation

Earthquake Activity

City Distance Mag. Time & Date
Minimum magnitude displayed is 2.5.

Coastal Water Temperatures

Place Temperature

Stations

Nearby Weather Stations

Station Location Temp. Windchill Dew Point Humidity Wind Precip. Elev Updated Type
                   

Watches & Warnings

There are currently no watches in effect.